Terminal Aerodrome Forecast
Issued by NWS

Home | Current Version | Previous Version | Text Only | Print | Product List | Glossary On
Versions: 1 2 3 4 5 6 7 8 9 10 11 12 13 14 15 16 17 18 19 20 21 22 23 24
000
FTUS45 KGJT 250531
TAFRIL
TAF
KRIL 250531Z 2506/2606 30008G16KT P6SM -RA OVC050
     FM250800 29008KT P6SM VCSH OVC060
      TEMPO 2508/2512 5SM -SHRA BR BKN018 OVC030
     FM251800 31006KT P6SM VCTS OVC070CB
     FM252000 30009KT P6SM -SHRA VCTS OVC060CB
     FM252200 32010G18KT P6SM VCTS OVC060CB
     FM260200 34007KT P6SM BKN070=

USA.gov is the U.S. government's official web portal to all federal, state and local government web resources and services.